Time;durP1;ratioP1;P1;durP2;ratioP2;P2;SDS_P1;SDS_P2;PMS_P1;PMS_P2;Temp;Humidity;BMP_temperature;BMP_pressure;BME280_temperature;BME280_humidity;BME280_pressure;Samples;Min_cycle;Max_cycle;Signal;HPM_P1;HPM_P2
2021/09/02 00:00:11;;;;;;;13.33;9.83;;;15.40;1.00;;;;;;5051388;28;20614;-58
2021/09/02 00:02:36;;;;;;;11.43;10.23;;;15.10;1.00;;;;;;5048991;28;20186;-58
2021/09/02 00:05:02;;;;;;;11.90;10.00;;;15.50;1.00;;;;;;5055561;28;20446;-58
2021/09/02 00:07:28;;;;;;;13.57;11.10;;;15.50;1.00;;;;;;5056918;28;20223;-59
2021/09/02 00:09:53;;;;;;;12.33;11.13;;;15.40;1.00;;;;;;5051980;28;20453;-59
2021/09/02 00:12:19;;;;;;;13.00;10.40;;;15.30;1.00;;;;;;5051734;28;20528;-59
2021/09/02 00:14:45;;;;;;;19.80;10.63;;;15.30;1.00;;;;;;5051976;28;20183;-59
2021/09/02 00:17:10;;;;;;;14.27;10.97;;;15.30;1.00;;;;;;5055261;28;20289;-59
2021/09/02 00:19:36;;;;;;;10.80;9.50;;;15.30;1.00;;;;;;5054795;28;20707;-58
2021/09/02 00:22:02;;;;;;;11.93;10.67;;;15.30;1.00;;;;;;5063129;28;20195;-59
2021/09/02 00:24:28;;;;;;;15.67;10.50;;;15.30;1.00;;;;;;5053514;28;20222;-59
2021/09/02 00:26:53;;;;;;;13.00;10.77;;;15.20;1.00;;;;;;5050004;28;20496;-60
2021/09/02 00:29:19;;;;;;;13.10;10.43;;;15.20;1.00;;;;;;5050662;28;20223;-57
2021/09/02 00:31:44;;;;;;;13.90;10.03;;;15.20;1.00;;;;;;5052187;28;20196;-58
2021/09/02 00:34:10;;;;;;;11.90;10.60;;;15.20;1.00;;;;;;5037061;28;20551;-57
2021/09/02 00:36:35;;;;;;;16.37;11.90;;;15.10;1.00;;;;;;5051771;28;20212;-60
2021/09/02 00:39:01;;;;;;;11.57;10.20;;;15.10;1.00;;;;;;5056198;28;20721;-58
2021/09/02 00:41:27;;;;;;;11.90;10.70;;;15.10;1.00;;;;;;5060014;28;20189;-59
2021/09/02 00:43:53;;;;;;;12.17;10.20;;;15.10;1.00;;;;;;5054297;28;20450;-59
2021/09/02 00:46:21;;;;;;;11.93;10.47;;;15.10;1.00;;;;;;5054858;28;20689;-59
2021/09/02 00:48:51;;;;;;;11.57;10.37;;;15.10;1.00;;;;;;5060917;28;20190;-58
2021/09/02 00:51:18;;;;;;;11.20;10.10;;;15.00;1.00;;;;;;5050916;28;20483;-59
2021/09/02 00:53:46;;;;;;;12.70;10.40;;;15.00;1.00;;;;;;5068204;28;20489;-58
2021/09/02 00:56:13;;;;;;;13.47;11.30;;;14.90;1.00;;;;;;5050859;28;20522;-59
2021/09/02 00:58:40;;;;;;;12.27;10.70;;;14.90;1.00;;;;;;5050633;28;20937;-59
2021/09/02 01:01:05;;;;;;;12.47;10.80;;;14.90;1.00;;;;;;5051084;28;20477;-59
2021/09/02 01:03:31;;;;;;;10.67;9.67;;;14.80;1.00;;;;;;5045959;28;20558;-57
2021/09/02 01:05:57;;;;;;;12.97;11.63;;;14.90;1.00;;;;;;5045143;28;20266;-59
2021/09/02 01:08:22;;;;;;;12.47;11.27;;;14.90;1.00;;;;;;5050947;28;20368;-58
2021/09/02 01:10:49;;;;;;;12.80;10.73;;;14.80;1.00;;;;;;5053518;28;20185;-59
2021/09/02 01:13:16;;;;;;;15.10;11.77;;;14.80;1.00;;;;;;5053356;28;20193;-59
2021/09/02 01:15:41;;;;;;;11.80;10.10;;;14.80;1.00;;;;;;5062603;28;20454;-60
2021/09/02 01:18:07;;;;;;;15.10;10.57;;;14.90;1.00;;;;;;5060124;28;20934;-60
2021/09/02 01:20:33;;;;;;;12.43;10.97;;;14.90;1.00;;;;;;5049444;28;20446;-59
2021/09/02 01:23:01;;;;;;;12.77;11.33;;;14.80;1.00;;;;;;5046015;28;20207;-60
2021/09/02 01:25:30;;;;;;;14.03;11.50;;;14.80;1.00;;;;;;5050716;28;20440;-59
2021/09/02 01:27:59;;;;;;;12.10;10.77;;;14.80;1.00;;;;;;5050195;28;20450;-61
2021/09/02 01:30:25;;;;;;;14.53;11.70;;;14.70;2.80;;;;;;5047904;28;20455;-59
2021/09/02 01:32:52;;;;;;;14.00;10.50;;;14.80;1.00;;;;;;5049541;28;20636;-58
2021/09/02 01:35:20;;;;;;;13.73;10.83;;;14.80;1.00;;;;;;5055134;28;20471;-60
2021/09/02 01:37:54;;;;;;;13.67;11.30;;;14.80;6.50;;;;;;5049308;28;20454;-59
2021/09/02 01:40:29;;;;;;;12.77;11.30;;;14.70;5.20;;;;;;5054091;28;20443;-57
2021/09/02 01:42:56;;;;;;;14.53;11.27;;;14.60;12.00;;;;;;5056627;28;20442;-59
2021/09/02 01:45:21;;;;;;;14.33;12.00;;;14.60;20.70;;;;;;5059239;28;20928;-58
2021/09/02 01:47:48;;;;;;;12.00;10.80;;;14.60;27.40;;;;;;5055263;28;20450;-60
2021/09/02 01:50:22;;;;;;;16.57;11.50;;;14.90;30.80;;;;;;5063372;28;20653;-57
2021/09/02 01:52:53;;;;;;;11.93;10.27;;;14.60;32.60;;;;;;5051122;28;20440;-58
2021/09/02 01:55:21;;;;;;;11.77;10.50;;;14.60;33.30;;;;;;5050931;28;20439;-58
2021/09/02 01:57:47;;;;;;;13.33;11.30;;;14.60;32.50;;;;;;5049837;28;20643;-59
2021/09/02 02:00:14;;;;;;;12.83;10.13;;;14.60;32.90;;;;;;5047729;28;20664;-58
2021/09/02 02:02:40;;;;;;;16.30;12.43;;;14.60;31.20;;;;;;5053383;28;20696;-57
2021/09/02 02:05:07;;;;;;;15.33;11.40;;;14.60;29.70;;;;;;5046929;28;20474;-58
2021/09/02 02:07:33;;;;;;;12.60;10.43;;;14.60;28.20;;;;;;5062108;28;20470;-59
2021/09/02 02:09:58;;;;;;;15.93;10.53;;;14.60;30.30;;;;;;5050077;28;20443;-59
2021/09/02 02:12:24;;;;;;;16.23;12.97;;;14.50;31.20;;;;;;5052246;28;20454;-57
2021/09/02 02:14:49;;;;;;;13.67;11.40;;;14.40;35.10;;;;;;5051361;28;20184;-57
2021/09/02 02:17:15;;;;;;;14.07;11.90;;;14.50;44.00;;;;;;5049631;28;20189;-58
2021/09/02 02:19:40;;;;;;;14.60;11.30;;;14.50;47.90;;;;;;5053885;28;20263;-58
2021/09/02 02:22:06;;;;;;;15.87;12.10;;;14.50;44.00;;;;;;5058743;28;20193;-59
2021/09/02 02:24:32;;;;;;;15.00;11.23;;;14.50;45.60;;;;;;5054197;28;20219;-57
2021/09/02 02:26:57;;;;;;;14.27;12.50;;;14.40;44.40;;;;;;5050443;28;20618;-58
2021/09/02 02:29:23;;;;;;;13.50;11.60;;;14.40;45.20;;;;;;5047716;28;20185;-58
2021/09/02 02:31:49;;;;;;;14.20;12.00;;;14.40;45.20;;;;;;5051566;28;20944;-57
2021/09/02 02:34:15;;;;;;;14.63;10.37;;;14.40;42.40;;;;;;5051611;28;20185;-59
2021/09/02 02:36:40;;;;;;;12.37;11.07;;;14.40;43.20;;;;;;5053576;28;20238;-58
2021/09/02 02:39:06;;;;;;;13.30;10.77;;;14.40;43.20;;;;;;5056448;28;20963;-58
2021/09/02 02:41:32;;;;;;;12.23;10.33;;;14.40;38.90;;;;;;5053911;28;20707;-58
2021/09/02 02:43:58;;;;;;;14.70;11.20;;;14.30;37.80;;;;;;5053657;28;20685;-57
2021/09/02 02:46:24;;;;;;;14.50;10.97;;;14.30;39.50;;;;;;5054338;28;20458;-57
2021/09/02 02:48:50;;;;;;;12.43;11.17;;;14.20;46.10;;;;;;5053600;28;20433;-59
2021/09/02 02:51:15;;;;;;;12.63;11.30;;;14.30;51.00;;;;;;5050143;28;20185;-57
2021/09/02 02:53:41;;;;;;;14.87;11.33;;;14.20;49.90;;;;;;5054204;28;20279;-58
2021/09/02 02:56:06;;;;;;;13.33;10.50;;;14.20;53.50;;;;;;5068032;28;20193;-59
2021/09/02 02:58:32;;;;;;;14.97;11.00;;;14.20;56.60;;;;;;5058205;28;20208;-57
2021/09/02 03:00:57;;;;;;;14.70;10.60;;;14.20;64.70;;;;;;5045685;28;20196;-58
2021/09/02 03:03:23;;;;;;;12.47;10.90;;;14.20;72.00;;;;;;5053777;28;20193;-59
2021/09/02 03:05:49;;;;;;;12.87;11.13;;;14.20;74.90;;;;;;5059600;28;20200;-57
2021/09/02 03:08:14;;;;;;;13.93;10.90;;;14.10;85.40;;;;;;5052612;28;20249;-58
2021/09/02 03:10:40;;;;;;;15.10;10.90;;;14.10;93.00;;;;;;5057971;28;20189;-58
2021/09/02 03:13:06;;;;;;;14.43;11.17;;;14.10;94.30;;;;;;5059000;28;20542;-59
2021/09/02 03:15:32;;;;;;;13.37;11.27;;;14.10;94.70;;;;;;5052263;28;20439;-58
2021/09/02 03:17:58;;;;;;;16.97;12.00;;;14.20;92.30;;;;;;5052674;28;20626;-58
2021/09/02 03:20:23;;;;;;;13.63;12.13;;;14.20;92.50;;;;;;5052744;28;20436;-59
2021/09/02 03:22:49;;;;;;;18.27;12.27;;;14.10;90.20;;;;;;5051997;28;20235;-58
2021/09/02 03:25:14;;;;;;;15.23;11.90;;;14.10;88.60;;;;;;5070739;28;20181;-58
2021/09/02 03:27:40;;;;;;;14.77;11.60;;;14.10;87.10;;;;;;5055508;28;20524;-58
2021/09/02 03:30:07;;;;;;;14.83;12.10;;;14.10;84.20;;;;;;5053239;28;20636;-58
2021/09/02 03:32:33;;;;;;;16.07;11.07;;;;;;;;;;5054169;28;20837;-59
2021/09/02 03:34:58;;;;;;;12.87;11.53;;;14.10;87.30;;;;;;5053044;28;20445;-58
2021/09/02 03:37:24;;;;;;;12.43;11.10;;;14.10;87.20;;;;;;5052170;28;20442;-58
2021/09/02 03:39:49;;;;;;;14.17;11.53;;;14.00;87.20;;;;;;5052341;28;20219;-59
2021/09/02 03:42:15;;;;;;;16.50;13.23;;;13.90;90.90;;;;;;5049719;28;20193;-59
2021/09/02 03:44:41;;;;;;;16.53;12.80;;;13.90;94.00;;;;;;5066843;28;20455;-57
2021/09/02 03:47:06;;;;;;;16.13;12.67;;;14.00;92.10;;;;;;5056703;28;20715;-58
2021/09/02 03:49:32;;;;;;;18.53;13.63;;;14.10;90.20;;;;;;5069868;28;20193;-59
2021/09/02 03:51:57;;;;;;;16.33;13.10;;;14.00;90.10;;;;;;5052290;28;20188;-58
2021/09/02 03:54:23;;;;;;;15.70;11.90;;;14.00;91.20;;;;;;5052955;28;20208;-59
2021/09/02 03:56:48;;;;;;;15.20;11.33;;;14.00;91.90;;;;;;5051129;28;20200;-58
2021/09/02 03:59:14;;;;;;;18.87;11.90;;;14.00;91.80;;;;;;5050716;28;20196;-57
2021/09/02 04:01:40;;;;;;;17.60;14.07;;;13.90;94.80;;;;;;5050187;28;20246;-56
2021/09/02 04:04:05;;;;;;;17.73;13.00;;;13.90;94.00;;;;;;5054040;28;20443;-60
2021/09/02 04:06:31;;;;;;;16.57;12.37;;;13.90;93.60;;;;;;5051734;28;20212;-55
2021/09/02 04:08:56;;;;;;;14.60;11.73;;;13.90;93.90;;;;;;5051220;28;20186;-58
2021/09/02 04:11:22;;;;;;;15.00;12.00;;;13.90;90.30;;;;;;5050734;28;20446;-59
2021/09/02 04:13:47;;;;;;;16.20;11.83;;;13.90;88.60;;;;;;5051318;28;20239;-59
2021/09/02 04:16:13;;;;;;;16.07;11.30;;;13.90;90.70;;;;;;5051550;28;20254;-59
2021/09/02 04:18:38;;;;;;;12.70;11.37;;;13.90;87.00;;;;;;5051476;28;20708;-59
2021/09/02 04:21:04;;;;;;;13.37;11.43;;;14.00;84.50;;;;;;5051740;28;20206;-59
2021/09/02 04:23:32;;;;;;;16.27;11.57;;;13.90;83.40;;;;;;5051982;28;20180;-58
2021/09/02 04:25:58;;;;;;;14.80;10.87;;;13.90;84.00;;;;;;5051013;28;20458;-60
2021/09/02 04:28:24;;;;;;;13.60;11.50;;;13.90;78.40;;;;;;5051522;28;20435;-58
2021/09/02 04:30:50;;;;;;;14.07;11.63;;;13.90;72.50;;;;;;5050452;28;20461;-58
2021/09/02 04:33:16;;;;;;;12.30;11.00;;;13.90;77.10;;;;;;5051183;28;20450;-61
2021/09/02 04:35:41;;;;;;;15.30;12.40;;;13.90;77.50;;;;;;5051369;28;20220;-58
2021/09/02 04:38:07;;;;;;;16.80;12.47;;;13.90;75.50;;;;;;5051034;28;20189;-60
2021/09/02 04:40:33;;;;;;;15.73;11.67;;;13.90;76.40;;;;;;5050640;28;20188;-58
2021/09/02 04:42:58;;;;;;;13.90;11.03;;;13.90;75.30;;;;;;5051055;28;20456;-58
2021/09/02 04:45:24;;;;;;;13.97;11.60;;;13.90;74.40;;;;;;5051071;28;20195;-59
2021/09/02 04:47:50;;;;;;;13.60;11.07;;;13.80;77.00;;;;;;5050885;28;20173;-59
2021/09/02 04:50:17;;;;;;;14.00;11.37;;;13.80;79.40;;;;;;5050665;28;20650;-60
2021/09/02 04:52:42;;;;;;;12.50;10.77;;;13.80;77.30;;;;;;5050925;28;20459;-58
2021/09/02 04:55:10;;;;;;;13.60;11.33;;;13.50;83.00;;;;;;5049548;28;20443;-56
2021/09/02 04:57:36;;;;;;;14.73;11.50;;;13.90;83.80;;;;;;5050908;28;20697;-59
2021/09/02 05:00:03;;;;;;;14.87;11.73;;;13.80;80.60;;;;;;5050790;28;20478;-58
2021/09/02 05:02:29;;;;;;;13.07;10.40;;;13.90;79.70;;;;;;5050352;28;20443;-60
2021/09/02 05:04:54;;;;;;;16.53;12.77;;;13.70;77.30;;;;;;5050834;28;20438;-57
2021/09/02 05:07:20;;;;;;;13.20;10.00;;;13.90;75.30;;;;;;5050616;28;20469;-57
2021/09/02 05:09:45;;;;;;;15.43;11.00;;;14.00;75.10;;;;;;5049937;28;20195;-57
2021/09/02 05:12:11;;;;;;;11.80;10.60;;;14.80;76.00;;;;;;5050487;28;20184;-59
2021/09/02 05:14:36;;;;;;;12.93;10.50;;;14.10;78.60;;;;;;5051470;28;20539;-58
2021/09/02 05:17:02;;;;;;;12.30;11.00;;;14.10;72.80;;;;;;5050444;28;20193;-57
2021/09/02 05:19:28;;;;;;;11.63;9.93;;;14.20;65.40;;;;;;5049255;28;20546;-57
2021/09/02 05:21:53;;;;;;;13.63;9.93;;;14.30;58.70;;;;;;5048573;28;20189;-57
2021/09/02 05:24:19;;;;;;;12.00;10.70;;;14.30;57.70;;;;;;5048633;28;20585;-58
2021/09/02 05:26:44;;;;;;;11.13;9.87;;;14.30;49.90;;;;;;5048614;28;20227;-57
2021/09/02 05:29:10;;;;;;;12.23;10.90;;;14.30;53.50;;;;;;5050124;28;20220;-57
2021/09/02 05:31:35;;;;;;;12.53;10.10;;;14.50;53.20;;;;;;5050190;28;20316;-58
2021/09/02 05:34:01;;;;;;;11.73;10.53;;;14.50;49.60;;;;;;5050269;28;20283;-58
2021/09/02 05:36:27;;;;;;;11.27;9.30;;;14.50;49.60;;;;;;5051646;28;20216;-58
2021/09/02 05:38:52;;;;;;;11.60;9.93;;;14.60;53.90;;;;;;5057075;28;20208;-59
2021/09/02 05:41:18;;;;;;;13.67;9.70;;;14.60;51.00;;;;;;5048689;28;20636;-57
2021/09/02 05:43:43;;;;;;;11.07;9.87;;;14.70;38.10;;;;;;5049812;28;20308;-59
2021/09/02 05:46:09;;;;;;;10.80;9.70;;;14.80;33.50;;;;;;5050177;28;20701;-57
2021/09/02 05:48:34;;;;;;;10.10;9.03;;;14.80;26.50;;;;;;5049134;28;20664;-58
2021/09/02 05:51:00;;;;;;;13.80;10.70;;;14.80;27.90;;;;;;5049255;28;20192;-57
2021/09/02 05:53:25;;;;;;;10.67;9.57;;;15.00;23.30;;;;;;5049709;28;20189;-57
2021/09/02 05:55:51;;;;;;;12.40;11.10;;;15.00;15.20;;;;;;5049620;28;20669;-56
2021/09/02 05:58:17;;;;;;;12.90;10.20;;;15.10;7.90;;;;;;5049743;28;20190;-57
2021/09/02 06:00:43;;;;;;;11.03;9.23;;;15.10;9.40;;;;;;5049175;28;20226;-59
2021/09/02 06:03:08;;;;;;;13.50;10.80;;;15.10;11.60;;;;;;5050040;28;20419;-57
2021/09/02 06:05:34;;;;;;;14.77;12.20;;;15.10;11.40;;;;;;5049790;28;20185;-58
2021/09/02 06:07:59;;;;;;;12.90;10.80;;;15.30;13.80;;;;;;5054020;28;20185;-57
2021/09/02 06:10:25;;;;;;;14.57;11.80;;;15.40;8.80;;;;;;5052454;28;20186;-57
2021/09/02 06:12:51;;;;;;;12.10;10.83;;;15.60;6.90;;;;;;5053020;28;20191;-57
2021/09/02 06:15:16;;;;;;;13.23;10.90;;;15.70;1.00;;;;;;5053302;28;20192;-57
2021/09/02 06:17:43;;;;;;;12.07;10.20;;;;;;;;;;5051951;28;20666;-57
2021/09/02 06:20:10;;;;;;;12.70;10.30;;;16.00;1.00;;;;;;5051852;28;20755;-57
2021/09/02 06:22:36;;;;;;;12.13;10.77;;;16.20;1.00;;;;;;5052066;28;20451;-59
2021/09/02 06:25:03;;;;;;;11.43;9.97;;;16.30;1.00;;;;;;5054268;28;20467;-57
2021/09/02 06:27:28;;;;;;;13.63;10.13;;;16.50;1.00;;;;;;5052628;28;20214;-56
2021/09/02 06:29:54;;;;;;;11.60;9.97;;;16.60;1.00;;;;;;5052957;28;20445;-57
2021/09/02 06:32:19;;;;;;;15.50;13.83;;;16.80;1.00;;;;;;5053218;28;20251;-58
2021/09/02 06:34:45;;;;;;;12.97;10.83;;;16.80;1.00;;;;;;5052984;28;20221;-59
2021/09/02 06:37:11;;;;;;;13.40;11.80;;;16.70;1.00;;;;;;5051112;28;20193;-59
2021/09/02 06:39:36;;;;;;;14.20;12.03;;;16.90;1.00;;;;;;5052423;28;20227;-57
2021/09/02 06:42:02;;;;;;;21.03;14.57;;;17.10;1.00;;;;;;5060384;28;20711;-58
2021/09/02 06:44:27;;;;;;;17.13;13.80;;;17.20;1.00;;;;;;5055579;28;20216;-59
2021/09/02 06:46:53;;;;;;;18.50;14.70;;;;;;;;;;5053216;28;20300;-58
2021/09/02 06:49:20;;;;;;;19.13;15.40;;;17.50;1.00;;;;;;5052899;28;20186;-57
2021/09/02 06:51:46;;;;;;;21.33;15.30;;;17.70;1.00;;;;;;5053297;28;20442;-59
2021/09/02 06:54:12;;;;;;;23.73;17.60;;;17.90;1.00;;;;;;5052592;28;20464;-57
2021/09/02 06:56:37;;;;;;;22.90;16.33;;;18.00;1.00;;;;;;5051498;28;20474;-58
2021/09/02 06:59:03;;;;;;;16.50;14.80;;;18.00;1.00;;;;;;5052868;28;20227;-56
2021/09/02 07:01:29;;;;;;;18.83;15.53;;;18.10;1.00;;;;;;5052954;28;20534;-58
2021/09/02 07:03:54;;;;;;;20.50;17.20;;;18.30;1.00;;;;;;5052270;28;20195;-57
2021/09/02 07:06:20;;;;;;;19.23;16.20;;;18.40;1.00;;;;;;5051518;28;20216;-57
2021/09/02 07:08:45;;;;;;;19.60;16.43;;;18.50;1.00;;;;;;5047891;28;20857;-58
2021/09/02 07:11:11;;;;;;;20.00;16.10;;;18.60;1.00;;;;;;5050559;28;20193;-62
2021/09/02 07:13:36;;;;;;;20.63;17.80;;;18.70;1.00;;;;;;5052054;28;20299;-58
2021/09/02 07:16:03;;;;;;;20.60;16.90;;;18.80;1.00;;;;;;5052150;28;20231;-58
2021/09/02 07:18:29;;;;;;;25.20;18.70;;;18.90;1.00;;;;;;5053791;28;20602;-59
2021/09/02 07:20:54;;;;;;;20.87;17.63;;;18.90;1.00;;;;;;5052172;28;20449;-57
2021/09/02 07:23:20;;;;;;;20.37;17.13;;;18.90;1.00;;;;;;5052313;28;20244;-58
2021/09/02 07:25:45;;;;;;;23.83;18.20;;;18.90;1.00;;;;;;5052869;28;20214;-57
2021/09/02 07:28:11;;;;;;;22.13;18.13;;;19.20;1.00;;;;;;5052314;28;20330;-57
2021/09/02 07:30:37;;;;;;;26.10;21.33;;;19.50;1.00;;;;;;5052294;28;20652;-58
2021/09/02 07:33:02;;;;;;;29.57;22.80;;;19.90;1.00;;;;;;5051946;28;20183;-58
2021/09/02 07:35:28;;;;;;;33.67;23.77;;;19.80;1.00;;;;;;5052177;28;20219;-57
2021/09/02 07:37:53;;;;;;;29.13;20.50;;;19.70;1.00;;;;;;5050458;28;20556;-57
2021/09/02 07:40:19;;;;;;;31.20;22.33;;;19.50;1.00;;;;;;5051193;28;20656;-57
2021/09/02 07:42:44;;;;;;;28.83;21.83;;;19.40;1.00;;;;;;5052453;28;20188;-60
2021/09/02 07:45:10;;;;;;;28.20;23.00;;;19.40;1.00;;;;;;5051616;28;20173;-57
2021/09/02 07:47:36;;;;;;;30.67;22.97;;;19.50;1.00;;;;;;5052329;28;20682;-57
2021/09/02 07:50:05;;;;;;;26.70;21.87;;;19.60;1.00;;;;;;5050456;28;20196;-56
2021/09/02 07:52:31;;;;;;;28.80;20.97;;;19.50;1.00;;;;;;5052323;28;20234;-58
2021/09/02 07:54:57;;;;;;;31.00;22.17;;;19.60;1.00;;;;;;5051845;28;20593;-58
2021/09/02 07:57:23;;;;;;;29.80;20.43;;;19.90;1.00;;;;;;5051452;28;20454;-59
2021/09/02 07:59:48;;;;;;;27.17;21.30;;;19.90;1.00;;;;;;5051781;28;20450;-58
2021/09/02 08:02:14;;;;;;;28.97;20.60;;;19.80;1.00;;;;;;5051988;28;20667;-58
2021/09/02 08:04:39;;;;;;;30.30;23.17;;;19.80;1.00;;;;;;5051794;28;20649;-58
2021/09/02 08:07:05;;;;;;;29.67;21.80;;;19.90;1.00;;;;;;5051116;28;20222;-58
2021/09/02 08:09:31;;;;;;;24.63;20.37;;;19.80;1.00;;;;;;5051813;28;20189;-56
2021/09/02 08:11:57;;;;;;;28.60;20.93;;;19.90;1.00;;;;;;5051932;28;20179;-58
2021/09/02 08:14:22;;;;;;;26.80;21.13;;;19.90;1.00;;;;;;5051430;28;20545;-57
2021/09/02 08:16:48;;;;;;;26.00;19.73;;;20.10;1.00;;;;;;5051499;28;20181;-57
2021/09/02 08:19:14;;;;;;;22.80;18.20;;;20.30;1.00;;;;;;5050796;28;20192;-57
2021/09/02 08:21:39;;;;;;;21.80;17.97;;;20.30;1.00;;;;;;5051388;28;20194;-58
2021/09/02 08:24:06;;;;;;;27.03;19.67;;;20.30;1.00;;;;;;5050520;28;20192;-56
2021/09/02 08:26:33;;;;;;;23.50;18.30;;;20.30;1.00;;;;;;5052042;28;20532;-58
2021/09/02 08:29:00;;;;;;;24.47;19.30;;;20.50;1.00;;;;;;5070451;28;20466;-57
2021/09/02 08:31:25;;;;;;;26.83;18.03;;;20.70;1.00;;;;;;5071156;28;20433;-58
2021/09/02 08:33:51;;;;;;;20.50;17.80;;;20.70;1.00;;;;;;5071095;28;20438;-58
2021/09/02 08:36:16;;;;;;;20.60;17.03;;;20.60;1.00;;;;;;5070562;28;20461;-57
2021/09/02 08:38:47;;;;;;;16.23;14.43;;;20.50;1.00;;;;;;5060713;28;20181;-58
2021/09/02 08:41:14;;;;;;;19.00;14.83;;;20.40;1.00;;;;;;5050009;28;20704;-58
2021/09/02 08:43:41;;;;;;;17.30;14.70;;;20.50;1.00;;;;;;5050633;28;20504;-58
2021/09/02 08:46:07;;;;;;;17.07;14.60;;;20.60;1.00;;;;;;5050722;28;20512;-59
2021/09/02 08:48:37;;;;;;;19.80;15.40;;;21.00;1.00;;;;;;5050562;28;20406;-58
2021/09/02 08:51:03;;;;;;;17.87;15.00;;;21.30;1.00;;;;;;5049084;28;20283;-57
2021/09/02 08:53:29;;;;;;;18.30;14.20;;;21.20;1.00;;;;;;5050295;28;20419;-57
2021/09/02 08:55:54;;;;;;;17.50;14.50;;;21.40;1.00;;;;;;5050381;28;20421;-58
2021/09/02 08:58:20;;;;;;;18.83;14.73;;;21.60;1.00;;;;;;5050578;28;20318;-57
2021/09/02 09:00:46;;;;;;;16.03;13.30;;;21.80;1.00;;;;;;5050292;28;20198;-57
2021/09/02 09:03:17;;;;;;;16.80;13.43;;;22.00;1.00;;;;;;5050616;28;20266;-59
2021/09/02 09:05:42;;;;;;;14.10;12.70;;;21.90;1.00;;;;;;5052589;28;20255;-58
2021/09/02 09:08:11;;;;;;;15.40;12.67;;;21.50;1.00;;;;;;5050065;28;20470;-57
2021/09/02 09:10:39;;;;;;;15.60;13.83;;;21.40;1.00;;;;;;5050069;28;20174;-56
2021/09/02 09:13:08;;;;;;;15.90;14.27;;;21.70;1.00;;;;;;5050273;28;20454;-58
2021/09/02 09:15:36;;;;;;;15.10;13.10;;;21.40;1.00;;;;;;5049691;28;20468;-57
2021/09/02 09:18:23;;;;;;;16.53;13.50;;;21.40;1.00;;;;;;5050818;28;20417;-59
2021/09/02 09:21:12;;;;;;;17.10;13.63;;;21.30;1.00;;;;;;5050235;28;20836;-57
2021/09/02 09:23:54;;;;;;;16.10;12.27;;;21.80;1.00;;;;;;5049651;28;20435;-56
2021/09/02 09:26:21;;;;;;;14.70;11.53;;;21.90;1.00;;;;;;5050007;28;20441;-57
2021/09/02 09:28:47;;;;;;;13.57;11.83;;;21.90;1.00;;;;;;5050220;28;20752;-56
2021/09/02 09:31:34;;;;;;;13.30;11.93;;;21.80;1.00;;;;;;5050011;28;20442;-57
2021/09/02 09:34:05;;;;;;;13.13;11.70;;;21.40;1.00;;;;;;5048225;28;20183;-58
2021/09/02 09:36:34;;;;;;;12.77;11.50;;;21.60;1.00;;;;;;5047873;28;20456;-57
2021/09/02 09:39:00;;;;;;;12.27;10.17;;;22.10;1.00;;;;;;5049974;28;20451;-57
2021/09/02 09:41:34;;;;;;;10.30;9.20;;;22.30;1.00;;;;;;5048572;28;20486;-57
2021/09/02 09:44:23;;;;;;;13.60;10.23;;;22.50;1.00;;;;;;5048539;28;20439;-57
2021/09/02 09:47:15;;;;;;;11.17;10.03;;;22.80;1.00;;;;;;5049672;28;20473;-57
2021/09/02 09:49:53;;;;;;;10.77;9.60;;;22.80;1.00;;;;;;5049466;28;20417;-57
2021/09/02 09:52:31;;;;;;;13.13;11.33;;;22.20;1.00;;;;;;5049313;28;20443;-59
2021/09/02 09:55:16;;;;;;;10.60;9.50;;;23.20;1.00;;;;;;5047297;28;21224;-58
2021/09/02 09:57:42;;;;;;;10.17;9.23;;;23.60;1.00;;;;;;5049891;28;20447;-57
2021/09/02 10:00:09;;;;;;;9.73;7.57;;;23.20;1.00;;;;;;5049884;28;20452;-57
2021/09/02 10:02:36;;;;;;;9.87;8.67;;;22.80;1.00;;;;;;5049721;28;20413;-57
2021/09/02 10:05:07;;;;;;;8.97;8.07;;;22.70;1.00;;;;;;5048717;28;20920;-58
2021/09/02 10:07:34;;;;;;;10.33;9.20;;;22.80;1.00;;;;;;5049379;28;20949;-57
2021/09/02 10:10:01;;;;;;;9.00;8.10;;;23.20;1.00;;;;;;5049618;28;20548;-57
2021/09/02 10:12:27;;;;;;;9.77;7.80;;;23.20;1.00;;;;;;5049238;28;20484;-58
2021/09/02 10:14:55;;;;;;;9.43;8.07;;;23.30;1.00;;;;;;5049833;28;20958;-58
2021/09/02 10:17:20;;;;;;;7.60;6.53;;;23.60;1.00;;;;;;5049950;28;20459;-57
2021/09/02 10:19:49;;;;;;;8.50;6.70;;;23.80;1.00;;;;;;5049915;28;20459;-58
2021/09/02 10:22:14;;;;;;;6.93;5.77;;;23.80;1.00;;;;;;5047734;28;20212;-57
2021/09/02 10:24:42;;;;;;;8.00;5.90;;;23.90;1.00;;;;;;5049438;28;20932;-57
2021/09/02 10:27:16;;;;;;;9.00;5.17;;;24.10;1.00;;;;;;5048128;28;20677;-58
2021/09/02 10:29:43;;;;;;;9.40;6.50;;;24.30;1.00;;;;;;5049665;28;20462;-59
2021/09/02 10:32:23;;;;;;;6.70;6.00;;;24.50;1.00;;;;;;5056692;28;20423;-58
2021/09/02 10:35:10;;;;;;;6.80;6.20;;;24.30;1.00;;;;;;5069894;28;20544;-59
2021/09/02 10:37:38;;;;;;;5.73;5.07;;;24.50;1.00;;;;;;5066032;28;20470;-56
2021/09/02 10:40:27;;;;;;;6.17;4.20;;;24.70;1.00;;;;;;5053800;28;20493;-57
2021/09/02 10:42:57;;;;;;;6.00;4.50;;;24.20;1.00;;;;;;5049670;28;20450;-57
2021/09/02 10:45:25;;;;;;;5.73;5.20;;;24.00;1.00;;;;;;5049685;28;20981;-59
2021/09/02 10:47:55;;;;;;;6.20;5.13;;;24.00;1.00;;;;;;5049587;28;20800;-59
2021/09/02 10:50:27;;;;;;;5.50;4.60;;;23.90;1.00;;;;;;5049598;28;20514;-59
2021/09/02 10:53:05;;;;;;;5.40;4.90;;;23.90;1.00;;;;;;5051876;28;20427;-58
2021/09/02 10:55:33;;;;;;;7.83;5.80;;;24.20;1.00;;;;;;5052485;28;20481;-57
2021/09/02 10:58:01;;;;;;;7.60;5.30;;;24.60;1.00;;;;;;5053464;28;20919;-59
2021/09/02 11:00:37;;;;;;;6.80;5.90;;;24.90;1.00;;;;;;5052862;28;20451;-57
2021/09/02 11:03:15;;;;;;;5.93;4.80;;;24.80;1.00;;;;;;5052951;28;20509;-57
2021/09/02 11:05:46;;;;;;;7.43;5.10;;;24.90;1.00;;;;;;5052972;28;20417;-58
2021/09/02 11:08:29;;;;;;;8.43;4.60;;;25.00;1.00;;;;;;5069893;28;20416;-60
2021/09/02 11:11:13;;;;;;;5.90;5.30;;;24.80;1.00;;;;;;5073206;28;20409;-58
2021/09/02 11:13:40;;;;;;;7.37;4.60;;;24.90;1.00;;;;;;5071175;28;20820;-58
2021/09/02 11:16:14;;;;;;;5.60;4.70;;;25.10;1.00;;;;;;5051617;28;20518;-57
2021/09/02 11:18:50;;;;;;;6.50;5.40;;;25.30;1.00;;;;;;5053007;28;20446;-58
2021/09/02 11:21:18;;;;;;;8.67;5.73;;;25.70;1.00;;;;;;5050273;28;20412;-57
2021/09/02 11:23:48;;;;;;;6.70;5.03;;;25.60;1.00;;;;;;5053064;28;20412;-56
2021/09/02 11:26:38;;;;;;;5.20;4.70;;;24.90;1.00;;;;;;5052859;28;20528;-57
2021/09/02 11:29:21;;;;;;;6.60;5.80;;;24.70;1.00;;;;;;5052756;28;20444;-58
2021/09/02 11:32:00;;;;;;;7.47;5.20;;;24.80;1.00;;;;;;5069538;28;20787;-57
2021/09/02 11:34:27;;;;;;;5.67;5.13;;;24.50;1.00;;;;;;5072270;28;21025;-57
2021/09/02 11:36:52;;;;;;;6.53;4.60;;;24.50;1.00;;;;;;5064705;28;20810;-57
2021/09/02 11:39:18;;;;;;;7.40;5.33;;;24.70;1.00;;;;;;5052565;28;20409;-58
2021/09/02 11:41:44;;;;;;;7.37;5.13;;;24.60;1.00;;;;;;5052515;28;20700;-57
2021/09/02 11:44:18;;;;;;;5.23;4.70;;;24.90;1.00;;;;;;5052591;28;20188;-57
2021/09/02 11:46:44;;;;;;;6.10;5.00;;;25.10;1.00;;;;;;5051891;28;20440;-58
2021/09/02 11:49:16;;;;;;;7.27;5.73;;;25.10;1.00;;;;;;5070990;28;20525;-59
2021/09/02 11:51:51;;;;;;;5.73;5.10;;;25.60;1.00;;;;;;5072320;28;20180;-57
2021/09/02 11:54:17;;;;;;;5.30;4.80;;;25.50;1.00;;;;;;5072502;28;20426;-56
2021/09/02 11:56:43;;;;;;;5.30;4.70;;;25.60;1.00;;;;;;5052748;28;20420;-59
2021/09/02 11:59:11;;;;;;;5.17;4.67;;;25.80;1.00;;;;;;5052037;28;20451;-58
2021/09/02 12:01:53;;;;;;;5.57;5.07;;;25.60;1.00;;;;;;5052172;28;20675;-59
2021/09/02 12:04:20;;;;;;;7.67;4.70;;;25.50;1.00;;;;;;5050371;28;20516;-57
2021/09/02 12:06:47;;;;;;;6.97;5.03;;;25.70;1.00;;;;;;5051431;28;20437;-57
2021/09/02 12:09:15;;;;;;;5.10;4.70;;;25.60;1.00;;;;;;5052104;28;20924;-59
2021/09/02 12:11:41;;;;;;;7.50;4.83;;;25.70;1.00;;;;;;5051965;28;20869;-57
2021/09/02 12:14:20;;;;;;;5.37;4.87;;;25.80;1.00;;;;;;5051420;28;20445;-57
2021/09/02 12:17:04;;;;;;;6.60;5.43;;;25.90;1.00;;;;;;5050331;28;20181;-58
2021/09/02 12:19:48;;;;;;;6.10;4.80;;;25.10;1.00;;;;;;5051736;28;20423;-58
2021/09/02 12:22:14;;;;;;;5.50;5.00;;;24.90;1.00;;;;;;5051928;28;20445;-58
2021/09/02 12:24:40;;;;;;;5.60;5.03;;;25.10;1.00;;;;;;5051686;28;20443;-57
2021/09/02 12:27:05;;;;;;;4.87;4.07;;;25.30;1.00;;;;;;5051780;28;20278;-57
2021/09/02 12:29:31;;;;;;;5.20;4.43;;;25.30;1.00;;;;;;5051662;28;20600;-58
2021/09/02 12:31:56;;;;;;;5.50;4.90;;;25.30;1.00;;;;;;5051382;28;20195;-57
2021/09/02 12:34:28;;;;;;;4.40;3.97;;;25.40;1.00;;;;;;5051786;28;20185;-57
2021/09/02 12:37:03;;;;;;;4.60;4.03;;;25.10;1.00;;;;;;5049485;28;20359;-58
2021/09/02 12:39:31;;;;;;;6.47;4.53;;;25.20;1.00;;;;;;5051559;28;20417;-58